logo liguriameteo

Diretta Meteo Palermo-Punta Raisi, Italialunedì 22 luglio ore 12:50

Mappa
Sereno 27 °C Sereno 24 Ore: T.min 27 T.max 34
Ponente Ovest Km/h 35.2 Punto di rugiada: 22 °C Umidità: 74% Visibilità: 10 Km
Il sole sorge alle: 06:00 Il sole tramonta alle: 20:27
22 Luglio 2024 12:50 tempo osservato: Sereno Sereno 27 74 1011 vento: Nord O 35.2
22 Luglio 2024 12:20 tempo osservato: Sereno Sereno 27 74 1011 vento: Nord O 38.8
22 Luglio 2024 11:50 tempo osservato: Sereno Sereno 27 74 1011 vento: Nord O 40.7
22 Luglio 2024 11:20 tempo osservato: Sereno Sereno 28 74 1011 vento: Nord O 38.8
22 Luglio 2024 10:50 tempo osservato: Sereno Sereno 28 74 1011 vento: Nord O 38.8
22 Luglio 2024 10:20 tempo osservato: Sereno Sereno 28 74 1010 vento: Nord O 31.5
22 Luglio 2024 09:50 tempo osservato: Sereno Sereno 29 70 1010 vento: Nord O/SO 27.8
22 Luglio 2024 09:20 tempo osservato: Sereno Sereno 28 78 1010 vento: Nord O/SO 24
22 Luglio 2024 08:50 tempo osservato: Sereno Sereno 29 66 1010 vento: Nord S/SO 20.3
22 Luglio 2024 08:20 tempo osservato: Sereno Sereno 29 62 1010 vento: Nord S/SO 22.2
22 Luglio 2024 07:50 tempo osservato: Sereno Sereno 29 66 1009 vento: Nord S/SO 27.8
22 Luglio 2024 07:20 tempo osservato: Sereno Sereno 28 65 1009 vento: Nord S/SO 29.6
22 Luglio 2024 06:50 tempo osservato: Sereno Sereno 29 51 1009 vento: Nord SO 35.2
22 Luglio 2024 06:20 tempo osservato: Sereno Sereno 32 29 1008 vento: Nord S/SO 22.2
22 Luglio 2024 05:50 tempo osservato: Sereno Sereno 32 25 1008 vento: Nord S/SO 25.9
22 Luglio 2024 05:20 tempo osservato: Sereno Sereno 32 22 1009 vento: Nord S 27.8
22 Luglio 2024 04:50 tempo osservato: Sereno Sereno 31 31 1009 vento: Nord S/SO 20.3
22 Luglio 2024 04:20 tempo osservato: Sereno Sereno 28 58 1009 vento: Nord N 9.3
22 Luglio 2024 03:50 tempo osservato: Sereno Sereno 27 65 1009 vento: Nord E/NE 7.4
22 Luglio 2024 03:20 tempo osservato: Sereno Sereno 27 69 1009 vento: Nord N 5.5
22 Luglio 2024 02:50 tempo osservato: Sereno Sereno 28 65 1009 vento: Nord E/NE 9.3
22 Luglio 2024 02:20 tempo osservato: Sereno Sereno 28 69 1009 vento: Nord N 5.5
22 Luglio 2024 01:50 tempo osservato: Sereno Sereno 29 48 1009 vento: Nord N 5.5
22 Luglio 2024 01:20 tempo osservato: Sereno Sereno 30 48 1009 vento: Nord N 1.8
22 Luglio 2024 00:50 tempo osservato: Sereno Sereno 28 58 1009 vento: Nord N 3.7
22 Luglio 2024 00:20 tempo osservato: Sereno Sereno 29 66 1009 vento: Nord N 3.7
21 Luglio 2024 23:50 tempo osservato: Sereno Sereno 29 66 1009 vento: Nord N 1.8
21 Luglio 2024 23:20 tempo osservato: Sereno Sereno 29 79 1009 vento: Nord N 5.5
21 Luglio 2024 22:50 tempo osservato: Sereno Sereno 30 74 1009 vento: Nord O/SO 7.4
21 Luglio 2024 22:20 tempo osservato: Sereno Sereno 29 62 1009 vento: Nord SO 7.4
21 Luglio 2024 21:50 tempo osservato: Sereno Sereno 29 70 1009 vento: Nord O/SO 11.1
21 Luglio 2024 21:20 tempo osservato: Sereno Sereno 30 70 1009 vento: Nord S 13
21 Luglio 2024 20:50 tempo osservato: Sereno Sereno 33 33 1008 vento: Nord E/NE 14.8
21 Luglio 2024 20:20 tempo osservato: Sereno Sereno 33 27 1009 vento: Nord E/NE 13
21 Luglio 2024 19:50 tempo osservato: Sereno Sereno 32 49 1009 vento: Nord NE 9.3
21 Luglio 2024 19:20 tempo osservato: Sereno Sereno 30 58 1009 vento: Nord N 5.5
21 Luglio 2024 18:50 tempo osservato: Sereno Sereno 33 43 1009 vento: Nord N 3.7
21 Luglio 2024 18:20 tempo osservato: Sereno Sereno 32 66 1009 vento: Nord N/NE 7.4
21 Luglio 2024 17:50 tempo osservato: Sereno Sereno 32 59 1009 vento: Nord N/NE 11.1
21 Luglio 2024 17:20 tempo osservato: Sereno Sereno 32 62 1009 vento: Nord N/NE 7.4
21 Luglio 2024 16:50 tempo osservato: Sereno Sereno 32 59 1009 vento: Nord N/NE 14.8
21 Luglio 2024 16:20 tempo osservato: Sereno Sereno 33 52 1009 vento: Nord N/NE 18.5
21 Luglio 2024 15:50 tempo osservato: Sereno Sereno 34 43 1009 vento: Nord N/NE 18.5
21 Luglio 2024 15:20 tempo osservato: Sereno Sereno 33 49 1009 vento: Nord N/NE 20.3
21 Luglio 2024 14:50 tempo osservato: Sereno Sereno 34 38 1009 vento: Nord NE 20.3
21 Luglio 2024 14:20 tempo osservato: Sereno Sereno 34 34 1009 vento: Nord E/NE 18.5
21 Luglio 2024 13:50 tempo osservato: Sereno Sereno 33 43 1010 vento: Nord N/NE 22.2